sensor_id;sensor_type;location;lat;lon;timestamp;P1;durP1;ratioP1;P2;durP2;ratioP2
31112;SDS011;17763;48.730;9.136;2023-05-29T00:00:15;8.93;;;5.15;;
31112;SDS011;17763;48.730;9.136;2023-05-29T00:02:44;8.05;;;4.90;;
31112;SDS011;17763;48.730;9.136;2023-05-29T00:05:13;7.13;;;4.75;;
31112;SDS011;17763;48.730;9.136;2023-05-29T00:07:40;7.32;;;5.30;;
31112;SDS011;17763;48.730;9.136;2023-05-29T00:10:09;8.68;;;5.25;;
31112;SDS011;17763;48.730;9.136;2023-05-29T00:12:38;5.82;;;4.35;;
31112;SDS011;17763;48.730;9.136;2023-05-29T00:15:04;7.57;;;5.35;;
31112;SDS011;17763;48.730;9.136;2023-05-29T00:17:30;9.15;;;5.70;;
31112;SDS011;17763;48.730;9.136;2023-05-29T00:20:01;11.48;;;5.60;;
31112;SDS011;17763;48.730;9.136;2023-05-29T00:22:37;11.75;;;4.82;;
31112;SDS011;17763;48.730;9.136;2023-05-29T00:25:06;8.32;;;5.25;;
31112;SDS011;17763;48.730;9.136;2023-05-29T00:27:32;9.43;;;4.93;;
31112;SDS011;17763;48.730;9.136;2023-05-29T00:29:59;8.10;;;4.80;;
31112;SDS011;17763;48.730;9.136;2023-05-29T00:32:28;9.35;;;5.95;;
31112;SDS011;17763;48.730;9.136;2023-05-29T00:34:54;7.72;;;4.97;;
31112;SDS011;17763;48.730;9.136;2023-05-29T00:37:20;7.93;;;5.75;;
31112;SDS011;17763;48.730;9.136;2023-05-29T00:39:49;8.52;;;4.30;;
31112;SDS011;17763;48.730;9.136;2023-05-29T00:42:17;5.63;;;4.65;;
31112;SDS011;17763;48.730;9.136;2023-05-29T00:44:43;12.82;;;5.57;;
31112;SDS011;17763;48.730;9.136;2023-05-29T00:47:09;18.98;;;9.75;;
31112;SDS011;17763;48.730;9.136;2023-05-29T00:49:35;10.68;;;6.28;;
31112;SDS011;17763;48.730;9.136;2023-05-29T00:52:02;7.85;;;5.25;;
31112;SDS011;17763;48.730;9.136;2023-05-29T00:54:32;8.88;;;5.47;;
31112;SDS011;17763;48.730;9.136;2023-05-29T00:59:31;7.63;;;4.88;;
31112;SDS011;17763;48.730;9.136;2023-05-29T01:01:58;7.75;;;4.93;;
31112;SDS011;17763;48.730;9.136;2023-05-29T01:04:26;6.93;;;4.25;;
31112;SDS011;17763;48.730;9.136;2023-05-29T01:06:52;7.03;;;4.72;;
31112;SDS011;17763;48.730;9.136;2023-05-29T01:09:18;9.00;;;5.30;;
31112;SDS011;17763;48.730;9.136;2023-05-29T01:11:50;8.48;;;5.03;;
31112;SDS011;17763;48.730;9.136;2023-05-29T01:14:35;9.30;;;5.13;;
31112;SDS011;17763;48.730;9.136;2023-05-29T01:17:06;7.13;;;5.43;;
31112;SDS011;17763;48.730;9.136;2023-05-29T01:22:13;8.02;;;5.55;;
31112;SDS011;17763;48.730;9.136;2023-05-29T01:25:11;8.73;;;4.95;;
31112;SDS011;17763;48.730;9.136;2023-05-29T01:28:02;6.53;;;4.80;;
31112;SDS011;17763;48.730;9.136;2023-05-29T01:30:34;10.43;;;5.50;;
31112;SDS011;17763;48.730;9.136;2023-05-29T01:33:01;7.93;;;5.13;;
31112;SDS011;17763;48.730;9.136;2023-05-29T01:35:30;8.23;;;5.28;;
31112;SDS011;17763;48.730;9.136;2023-05-29T01:37:56;6.45;;;4.97;;
31112;SDS011;17763;48.730;9.136;2023-05-29T01:40:24;8.98;;;5.50;;
31112;SDS011;17763;48.730;9.136;2023-05-29T01:42:52;7.50;;;4.53;;
31112;SDS011;17763;48.730;9.136;2023-05-29T01:45:18;6.05;;;4.82;;
31112;SDS011;17763;48.730;9.136;2023-05-29T01:47:47;5.57;;;5.07;;
31112;SDS011;17763;48.730;9.136;2023-05-29T01:50:14;9.18;;;4.93;;
31112;SDS011;17763;48.730;9.136;2023-05-29T01:52:43;7.63;;;5.75;;
31112;SDS011;17763;48.730;9.136;2023-05-29T01:55:08;8.25;;;4.85;;
31112;SDS011;17763;48.730;9.136;2023-05-29T01:57:34;10.55;;;5.75;;
31112;SDS011;17763;48.730;9.136;2023-05-29T02:00:02;8.57;;;4.97;;
31112;SDS011;17763;48.730;9.136;2023-05-29T02:02:36;8.68;;;5.25;;
31112;SDS011;17763;48.730;9.136;2023-05-29T02:05:10;11.88;;;6.25;;
31112;SDS011;17763;48.730;9.136;2023-05-29T02:07:38;8.00;;;5.50;;
31112;SDS011;17763;48.730;9.136;2023-05-29T02:10:04;7.75;;;5.45;;
31112;SDS011;17763;48.730;9.136;2023-05-29T02:12:31;10.70;;;5.78;;
31112;SDS011;17763;48.730;9.136;2023-05-29T02:14:59;10.07;;;5.18;;
31112;SDS011;17763;48.730;9.136;2023-05-29T02:17:25;6.95;;;4.97;;
31112;SDS011;17763;48.730;9.136;2023-05-29T02:19:53;10.90;;;5.53;;
31112;SDS011;17763;48.730;9.136;2023-05-29T02:22:19;8.00;;;4.93;;
31112;SDS011;17763;48.730;9.136;2023-05-29T02:24:47;5.90;;;4.85;;
31112;SDS011;17763;48.730;9.136;2023-05-29T02:27:13;9.45;;;5.03;;
31112;SDS011;17763;48.730;9.136;2023-05-29T02:29:39;13.70;;;5.93;;
31112;SDS011;17763;48.730;9.136;2023-05-29T02:32:05;9.13;;;5.38;;
31112;SDS011;17763;48.730;9.136;2023-05-29T02:34:31;7.68;;;4.60;;
31112;SDS011;17763;48.730;9.136;2023-05-29T02:36:57;11.93;;;5.50;;
31112;SDS011;17763;48.730;9.136;2023-05-29T02:39:25;9.68;;;5.32;;
31112;SDS011;17763;48.730;9.136;2023-05-29T02:41:53;7.60;;;4.78;;
31112;SDS011;17763;48.730;9.136;2023-05-29T02:44:20;14.38;;;5.82;;
31112;SDS011;17763;48.730;9.136;2023-05-29T02:46:45;5.03;;;4.53;;
31112;SDS011;17763;48.730;9.136;2023-05-29T02:49:11;9.85;;;5.45;;
31112;SDS011;17763;48.730;9.136;2023-05-29T02:51:39;8.73;;;4.95;;
31112;SDS011;17763;48.730;9.136;2023-05-29T02:54:11;11.27;;;5.10;;
31112;SDS011;17763;48.730;9.136;2023-05-29T02:56:37;8.40;;;5.20;;
31112;SDS011;17763;48.730;9.136;2023-05-29T02:59:05;9.18;;;4.97;;
31112;SDS011;17763;48.730;9.136;2023-05-29T03:01:36;6.53;;;4.75;;
31112;SDS011;17763;48.730;9.136;2023-05-29T03:04:02;8.07;;;5.43;;
31112;SDS011;17763;48.730;9.136;2023-05-29T03:06:30;8.35;;;4.65;;
31112;SDS011;17763;48.730;9.136;2023-05-29T03:08:57;9.02;;;4.70;;
31112;SDS011;17763;48.730;9.136;2023-05-29T03:11:24;6.25;;;5.00;;
31112;SDS011;17763;48.730;9.136;2023-05-29T03:13:50;11.93;;;6.00;;
31112;SDS011;17763;48.730;9.136;2023-05-29T03:16:16;10.40;;;6.35;;
31112;SDS011;17763;48.730;9.136;2023-05-29T03:18:42;9.20;;;4.93;;
31112;SDS011;17763;48.730;9.136;2023-05-29T03:21:08;9.05;;;5.63;;
31112;SDS011;17763;48.730;9.136;2023-05-29T03:23:39;8.65;;;4.60;;
31112;SDS011;17763;48.730;9.136;2023-05-29T03:28:34;6.47;;;4.85;;
31112;SDS011;17763;48.730;9.136;2023-05-29T03:31:01;9.13;;;5.40;;
31112;SDS011;17763;48.730;9.136;2023-05-29T03:33:29;7.18;;;5.18;;
31112;SDS011;17763;48.730;9.136;2023-05-29T03:35:55;8.82;;;5.07;;
31112;SDS011;17763;48.730;9.136;2023-05-29T03:38:26;7.97;;;5.10;;
31112;SDS011;17763;48.730;9.136;2023-05-29T03:40:53;5.97;;;5.03;;
31112;SDS011;17763;48.730;9.136;2023-05-29T03:43:19;8.02;;;5.00;;
31112;SDS011;17763;48.730;9.136;2023-05-29T03:45:50;6.88;;;5.68;;
31112;SDS011;17763;48.730;9.136;2023-05-29T03:48:16;5.38;;;4.40;;
31112;SDS011;17763;48.730;9.136;2023-05-29T03:50:45;6.68;;;5.13;;
31112;SDS011;17763;48.730;9.136;2023-05-29T03:53:11;10.68;;;5.03;;
31112;SDS011;17763;48.730;9.136;2023-05-29T03:55:37;6.43;;;4.80;;
31112;SDS011;17763;48.730;9.136;2023-05-29T03:58:05;7.10;;;4.80;;
31112;SDS011;17763;48.730;9.136;2023-05-29T04:00:31;6.78;;;4.68;;
31112;SDS011;17763;48.730;9.136;2023-05-29T04:02:57;8.05;;;4.93;;
31112;SDS011;17763;48.730;9.136;2023-05-29T04:05:23;7.57;;;4.53;;
31112;SDS011;17763;48.730;9.136;2023-05-29T04:07:48;6.80;;;5.10;;
31112;SDS011;17763;48.730;9.136;2023-05-29T04:10:22;8.18;;;5.05;;
31112;SDS011;17763;48.730;9.136;2023-05-29T04:12:48;11.00;;;5.32;;
31112;SDS011;17763;48.730;9.136;2023-05-29T04:15:14;8.15;;;5.18;;
31112;SDS011;17763;48.730;9.136;2023-05-29T04:17:40;6.88;;;5.03;;
31112;SDS011;17763;48.730;9.136;2023-05-29T04:20:09;8.20;;;5.05;;
31112;SDS011;17763;48.730;9.136;2023-05-29T04:22:35;6.20;;;4.53;;
31112;SDS011;17763;48.730;9.136;2023-05-29T04:25:06;7.80;;;5.30;;
31112;SDS011;17763;48.730;9.136;2023-05-29T04:27:32;8.70;;;5.05;;
31112;SDS011;17763;48.730;9.136;2023-05-29T04:30:03;7.05;;;4.43;;
31112;SDS011;17763;48.730;9.136;2023-05-29T04:32:32;9.43;;;5.03;;
31112;SDS011;17763;48.730;9.136;2023-05-29T04:34:59;7.07;;;4.55;;
31112;SDS011;17763;48.730;9.136;2023-05-29T04:37:29;7.20;;;5.18;;
31112;SDS011;17763;48.730;9.136;2023-05-29T04:39:56;9.00;;;5.40;;
31112;SDS011;17763;48.730;9.136;2023-05-29T04:42:22;10.93;;;5.40;;
31112;SDS011;17763;48.730;9.136;2023-05-29T04:44:52;9.80;;;5.50;;
31112;SDS011;17763;48.730;9.136;2023-05-29T04:47:19;7.68;;;5.45;;
31112;SDS011;17763;48.730;9.136;2023-05-29T04:49:45;8.43;;;5.35;;
31112;SDS011;17763;48.730;9.136;2023-05-29T04:52:15;9.82;;;5.25;;
31112;SDS011;17763;48.730;9.136;2023-05-29T04:54:41;7.13;;;4.90;;
31112;SDS011;17763;48.730;9.136;2023-05-29T04:57:07;7.75;;;5.07;;
31112;SDS011;17763;48.730;9.136;2023-05-29T04:59:35;10.70;;;5.93;;
31112;SDS011;17763;48.730;9.136;2023-05-29T05:02:10;5.88;;;4.88;;
31112;SDS011;17763;48.730;9.136;2023-05-29T05:04:36;7.68;;;5.22;;
31112;SDS011;17763;48.730;9.136;2023-05-29T05:07:02;8.18;;;5.15;;
31112;SDS011;17763;48.730;9.136;2023-05-29T05:09:45;6.45;;;5.10;;
31112;SDS011;17763;48.730;9.136;2023-05-29T05:12:18;9.10;;;5.25;;
31112;SDS011;17763;48.730;9.136;2023-05-29T05:14:46;12.57;;;6.32;;
31112;SDS011;17763;48.730;9.136;2023-05-29T05:17:12;10.48;;;5.70;;
31112;SDS011;17763;48.730;9.136;2023-05-29T05:19:38;8.45;;;6.22;;
31112;SDS011;17763;48.730;9.136;2023-05-29T05:22:04;8.85;;;5.70;;
31112;SDS011;17763;48.730;9.136;2023-05-29T05:24:35;8.15;;;5.20;;
31112;SDS011;17763;48.730;9.136;2023-05-29T05:27:05;9.02;;;5.45;;
31112;SDS011;17763;48.730;9.136;2023-05-29T05:29:31;8.25;;;5.07;;
31112;SDS011;17763;48.730;9.136;2023-05-29T05:31:57;6.22;;;4.70;;
31112;SDS011;17763;48.730;9.136;2023-05-29T05:34:22;6.65;;;5.10;;
31112;SDS011;17763;48.730;9.136;2023-05-29T05:36:54;6.57;;;4.70;;
31112;SDS011;17763;48.730;9.136;2023-05-29T05:41:45;7.68;;;5.25;;
31112;SDS011;17763;48.730;9.136;2023-05-29T05:44:11;11.40;;;4.95;;
31112;SDS011;17763;48.730;9.136;2023-05-29T05:46:39;7.30;;;5.07;;
31112;SDS011;17763;48.730;9.136;2023-05-29T05:49:07;9.10;;;5.40;;
31112;SDS011;17763;48.730;9.136;2023-05-29T05:51:33;7.43;;;5.20;;
31112;SDS011;17763;48.730;9.136;2023-05-29T05:54:00;8.25;;;5.38;;
31112;SDS011;17763;48.730;9.136;2023-05-29T05:56:34;7.40;;;5.10;;
31112;SDS011;17763;48.730;9.136;2023-05-29T05:59:00;9.63;;;5.22;;
31112;SDS011;17763;48.730;9.136;2023-05-29T06:01:26;8.85;;;6.63;;
31112;SDS011;17763;48.730;9.136;2023-05-29T06:03:51;8.10;;;5.18;;
31112;SDS011;17763;48.730;9.136;2023-05-29T06:06:17;7.95;;;5.28;;
31112;SDS011;17763;48.730;9.136;2023-05-29T06:08:43;8.32;;;4.60;;
31112;SDS011;17763;48.730;9.136;2023-05-29T06:11:12;7.00;;;5.20;;
31112;SDS011;17763;48.730;9.136;2023-05-29T06:13:38;6.43;;;4.88;;
31112;SDS011;17763;48.730;9.136;2023-05-29T06:16:03;9.88;;;5.20;;
31112;SDS011;17763;48.730;9.136;2023-05-29T06:18:29;7.50;;;4.82;;
31112;SDS011;17763;48.730;9.136;2023-05-29T06:20:58;7.05;;;5.43;;
31112;SDS011;17763;48.730;9.136;2023-05-29T06:23:28;7.20;;;5.78;;
31112;SDS011;17763;48.730;9.136;2023-05-29T06:25:56;7.10;;;5.30;;
31112;SDS011;17763;48.730;9.136;2023-05-29T06:28:22;9.75;;;5.63;;
31112;SDS011;17763;48.730;9.136;2023-05-29T06:30:50;7.90;;;5.20;;
31112;SDS011;17763;48.730;9.136;2023-05-29T06:33:16;8.50;;;5.88;;
31112;SDS011;17763;48.730;9.136;2023-05-29T06:35:46;7.15;;;5.20;;
31112;SDS011;17763;48.730;9.136;2023-05-29T06:38:14;6.75;;;5.60;;
31112;SDS011;17763;48.730;9.136;2023-05-29T06:40:40;7.45;;;4.93;;
31112;SDS011;17763;48.730;9.136;2023-05-29T06:43:06;6.07;;;4.97;;
31112;SDS011;17763;48.730;9.136;2023-05-29T06:45:31;8.60;;;5.22;;
31112;SDS011;17763;48.730;9.136;2023-05-29T06:47:57;6.03;;;5.40;;
31112;SDS011;17763;48.730;9.136;2023-05-29T06:50:26;8.00;;;5.82;;
31112;SDS011;17763;48.730;9.136;2023-05-29T06:52:51;11.38;;;6.10;;
31112;SDS011;17763;48.730;9.136;2023-05-29T06:55:17;8.10;;;5.00;;
31112;SDS011;17763;48.730;9.136;2023-05-29T06:57:43;8.82;;;5.65;;
31112;SDS011;17763;48.730;9.136;2023-05-29T07:00:09;12.45;;;5.45;;
31112;SDS011;17763;48.730;9.136;2023-05-29T07:02:39;8.70;;;5.97;;
31112;SDS011;17763;48.730;9.136;2023-05-29T07:05:07;8.70;;;5.85;;
31112;SDS011;17763;48.730;9.136;2023-05-29T07:07:33;9.77;;;5.72;;
31112;SDS011;17763;48.730;9.136;2023-05-29T07:10:02;7.18;;;5.10;;
31112;SDS011;17763;48.730;9.136;2023-05-29T07:12:28;9.57;;;5.47;;
31112;SDS011;17763;48.730;9.136;2023-05-29T07:14:56;10.05;;;6.28;;
31112;SDS011;17763;48.730;9.136;2023-05-29T07:17:22;7.93;;;5.60;;
31112;SDS011;17763;48.730;9.136;2023-05-29T07:19:50;9.52;;;5.85;;
31112;SDS011;17763;48.730;9.136;2023-05-29T07:24:45;9.55;;;6.13;;
31112;SDS011;17763;48.730;9.136;2023-05-29T07:27:12;6.43;;;5.25;;
31112;SDS011;17763;48.730;9.136;2023-05-29T07:29:37;8.43;;;5.60;;
31112;SDS011;17763;48.730;9.136;2023-05-29T07:32:06;6.90;;;5.57;;
31112;SDS011;17763;48.730;9.136;2023-05-29T07:34:35;9.70;;;5.88;;
31112;SDS011;17763;48.730;9.136;2023-05-29T07:37:04;9.57;;;5.60;;
31112;SDS011;17763;48.730;9.136;2023-05-29T07:39:39;6.75;;;5.75;;
31112;SDS011;17763;48.730;9.136;2023-05-29T07:42:04;7.50;;;5.45;;
31112;SDS011;17763;48.730;9.136;2023-05-29T07:44:36;7.85;;;5.85;;
31112;SDS011;17763;48.730;9.136;2023-05-29T07:47:02;8.48;;;5.35;;
31112;SDS011;17763;48.730;9.136;2023-05-29T07:49:28;9.75;;;5.70;;
31112;SDS011;17763;48.730;9.136;2023-05-29T07:51:54;10.20;;;5.55;;
31112;SDS011;17763;48.730;9.136;2023-05-29T07:54:24;6.53;;;5.30;;
31112;SDS011;17763;48.730;9.136;2023-05-29T07:56:51;9.55;;;5.13;;
31112;SDS011;17763;48.730;9.136;2023-05-29T07:59:16;11.93;;;6.10;;
31112;SDS011;17763;48.730;9.136;2023-05-29T08:01:42;6.80;;;5.20;;
31112;SDS011;17763;48.730;9.136;2023-05-29T08:04:09;9.63;;;5.55;;
31112;SDS011;17763;48.730;9.136;2023-05-29T08:06:35;11.63;;;5.70;;
31112;SDS011;17763;48.730;9.136;2023-05-29T08:09:01;8.68;;;5.57;;
31112;SDS011;17763;48.730;9.136;2023-05-29T08:11:31;9.40;;;6.15;;
31112;SDS011;17763;48.730;9.136;2023-05-29T08:13:57;7.25;;;5.75;;
31112;SDS011;17763;48.730;9.136;2023-05-29T08:16:23;11.15;;;5.32;;
31112;SDS011;17763;48.730;9.136;2023-05-29T08:18:48;6.53;;;4.93;;
31112;SDS011;17763;48.730;9.136;2023-05-29T08:21:17;7.70;;;5.25;;
31112;SDS011;17763;48.730;9.136;2023-05-29T08:23:42;8.85;;;5.80;;
31112;SDS011;17763;48.730;9.136;2023-05-29T08:26:11;8.68;;;5.45;;
31112;SDS011;17763;48.730;9.136;2023-05-29T08:28:38;5.90;;;5.30;;
31112;SDS011;17763;48.730;9.136;2023-05-29T08:31:07;10.05;;;5.78;;
31112;SDS011;17763;48.730;9.136;2023-05-29T08:33:33;8.43;;;5.72;;
31112;SDS011;17763;48.730;9.136;2023-05-29T08:35:59;7.85;;;5.10;;
31112;SDS011;17763;48.730;9.136;2023-05-29T08:38:25;7.50;;;5.05;;
31112;SDS011;17763;48.730;9.136;2023-05-29T08:40:51;8.88;;;5.93;;
31112;SDS011;17763;48.730;9.136;2023-05-29T08:45:45;7.53;;;5.13;;
31112;SDS011;17763;48.730;9.136;2023-05-29T08:48:13;8.77;;;5.03;;
31112;SDS011;17763;48.730;9.136;2023-05-29T08:50:44;8.70;;;5.22;;
31112;SDS011;17763;48.730;9.136;2023-05-29T08:53:14;7.15;;;5.20;;
31112;SDS011;17763;48.730;9.136;2023-05-29T08:55:46;9.40;;;5.88;;
31112;SDS011;17763;48.730;9.136;2023-05-29T08:58:16;8.18;;;5.60;;
31112;SDS011;17763;48.730;9.136;2023-05-29T09:00:51;8.90;;;5.30;;
31112;SDS011;17763;48.730;9.136;2023-05-29T09:03:17;7.00;;;5.00;;
31112;SDS011;17763;48.730;9.136;2023-05-29T09:05:42;7.93;;;5.10;;
31112;SDS011;17763;48.730;9.136;2023-05-29T09:08:12;8.18;;;5.35;;
31112;SDS011;17763;48.730;9.136;2023-05-29T09:10:45;8.32;;;5.95;;
31112;SDS011;17763;48.730;9.136;2023-05-29T09:13:14;8.57;;;5.90;;
31112;SDS011;17763;48.730;9.136;2023-05-29T09:15:40;8.00;;;5.70;;
31112;SDS011;17763;48.730;9.136;2023-05-29T09:18:08;9.27;;;5.38;;
31112;SDS011;17763;48.730;9.136;2023-05-29T09:20:34;7.30;;;5.10;;
31112;SDS011;17763;48.730;9.136;2023-05-29T09:23:01;8.43;;;5.35;;
31112;SDS011;17763;48.730;9.136;2023-05-29T09:25:32;8.77;;;5.25;;
31112;SDS011;17763;48.730;9.136;2023-05-29T09:27:59;13.60;;;6.38;;
31112;SDS011;17763;48.730;9.136;2023-05-29T09:30:45;6.95;;;5.45;;
31112;SDS011;17763;48.730;9.136;2023-05-29T09:33:14;10.90;;;5.32;;
31112;SDS011;17763;48.730;9.136;2023-05-29T09:35:42;9.27;;;5.43;;
31112;SDS011;17763;48.730;9.136;2023-05-29T09:38:08;8.82;;;5.28;;
31112;SDS011;17763;48.730;9.136;2023-05-29T09:40:36;8.13;;;5.78;;
31112;SDS011;17763;48.730;9.136;2023-05-29T09:43:11;8.15;;;5.63;;
31112;SDS011;17763;48.730;9.136;2023-05-29T09:45:45;6.78;;;5.45;;
31112;SDS011;17763;48.730;9.136;2023-05-29T09:48:33;8.82;;;5.32;;
31112;SDS011;17763;48.730;9.136;2023-05-29T09:50:58;11.15;;;6.20;;
31112;SDS011;17763;48.730;9.136;2023-05-29T09:53:27;7.20;;;5.38;;
31112;SDS011;17763;48.730;9.136;2023-05-29T09:55:56;10.50;;;5.60;;
31112;SDS011;17763;48.730;9.136;2023-05-29T09:58:25;6.18;;;5.28;;
31112;SDS011;17763;48.730;9.136;2023-05-29T10:00:53;9.68;;;5.85;;
31112;SDS011;17763;48.730;9.136;2023-05-29T10:03:23;8.52;;;5.45;;
31112;SDS011;17763;48.730;9.136;2023-05-29T10:05:49;12.23;;;5.57;;
31112;SDS011;17763;48.730;9.136;2023-05-29T10:08:17;12.73;;;5.70;;
31112;SDS011;17763;48.730;9.136;2023-05-29T10:10:52;8.15;;;5.40;;
31112;SDS011;17763;48.730;9.136;2023-05-29T10:13:27;11.20;;;5.35;;
31112;SDS011;17763;48.730;9.136;2023-05-29T10:15:56;7.00;;;4.68;;
31112;SDS011;17763;48.730;9.136;2023-05-29T10:18:25;8.27;;;5.00;;
31112;SDS011;17763;48.730;9.136;2023-05-29T10:21:02;5.45;;;4.50;;
31112;SDS011;17763;48.730;9.136;2023-05-29T10:23:31;9.10;;;5.55;;
31112;SDS011;17763;48.730;9.136;2023-05-29T10:26:00;8.63;;;4.97;;
31112;SDS011;17763;48.730;9.136;2023-05-29T10:28:37;6.18;;;4.80;;
31112;SDS011;17763;48.730;9.136;2023-05-29T10:31:16;8.90;;;5.30;;
31112;SDS011;17763;48.730;9.136;2023-05-29T10:36:40;6.50;;;4.60;;
31112;SDS011;17763;48.730;9.136;2023-05-29T10:39:12;5.68;;;4.35;;
31112;SDS011;17763;48.730;9.136;2023-05-29T10:41:45;8.25;;;5.15;;
31112;SDS011;17763;48.730;9.136;2023-05-29T10:49:30;8.52;;;5.07;;
31112;SDS011;17763;48.730;9.136;2023-05-29T10:51:57;5.93;;;4.70;;
31112;SDS011;17763;48.730;9.136;2023-05-29T10:54:28;5.70;;;4.50;;
31112;SDS011;17763;48.730;9.136;2023-05-29T10:57:08;8.13;;;4.75;;
31112;SDS011;17763;48.730;9.136;2023-05-29T10:59:38;6.05;;;4.55;;
31112;SDS011;17763;48.730;9.136;2023-05-29T11:02:06;7.32;;;5.30;;
31112;SDS011;17763;48.730;9.136;2023-05-29T11:04:33;7.30;;;4.65;;
31112;SDS011;17763;48.730;9.136;2023-05-29T11:06:59;8.43;;;4.57;;
31112;SDS011;17763;48.730;9.136;2023-05-29T11:09:35;5.05;;;4.50;;
31112;SDS011;17763;48.730;9.136;2023-05-29T11:12:10;5.53;;;4.05;;
31112;SDS011;17763;48.730;9.136;2023-05-29T11:15:09;6.10;;;4.00;;
31112;SDS011;17763;48.730;9.136;2023-05-29T11:25:14;13.35;;;4.20;;
31112;SDS011;17763;48.730;9.136;2023-05-29T11:27:41;5.47;;;3.70;;
31112;SDS011;17763;48.730;9.136;2023-05-29T11:30:12;5.95;;;4.03;;
31112;SDS011;17763;48.730;9.136;2023-05-29T11:32:39;8.00;;;3.95;;
31112;SDS011;17763;48.730;9.136;2023-05-29T11:35:09;5.28;;;4.05;;
31112;SDS011;17763;48.730;9.136;2023-05-29T11:37:39;9.43;;;3.90;;
31112;SDS011;17763;48.730;9.136;2023-05-29T11:40:08;8.00;;;3.92;;
31112;SDS011;17763;48.730;9.136;2023-05-29T11:42:43;5.45;;;4.38;;
31112;SDS011;17763;48.730;9.136;2023-05-29T11:45:32;9.20;;;4.72;;
31112;SDS011;17763;48.730;9.136;2023-05-29T11:50:25;11.05;;;4.45;;
31112;SDS011;17763;48.730;9.136;2023-05-29T11:52:55;5.18;;;3.90;;
31112;SDS011;17763;48.730;9.136;2023-05-29T11:55:22;5.07;;;3.70;;
31112;SDS011;17763;48.730;9.136;2023-05-29T11:57:55;9.35;;;4.43;;
31112;SDS011;17763;48.730;9.136;2023-05-29T12:00:23;10.95;;;3.95;;
31112;SDS011;17763;48.730;9.136;2023-05-29T12:02:49;4.18;;;3.78;;
31112;SDS011;17763;48.730;9.136;2023-05-29T12:05:23;4.45;;;4.05;;
31112;SDS011;17763;48.730;9.136;2023-05-29T12:07:58;6.82;;;3.88;;
31112;SDS011;17763;48.730;9.136;2023-05-29T12:10:30;5.03;;;3.85;;
31112;SDS011;17763;48.730;9.136;2023-05-29T12:12:57;7.78;;;4.03;;
31112;SDS011;17763;48.730;9.136;2023-05-29T12:15:26;7.93;;;4.13;;
31112;SDS011;17763;48.730;9.136;2023-05-29T12:17:52;8.13;;;4.05;;
31112;SDS011;17763;48.730;9.136;2023-05-29T12:20:19;5.45;;;3.60;;
31112;SDS011;17763;48.730;9.136;2023-05-29T12:22:51;4.68;;;3.53;;
31112;SDS011;17763;48.730;9.136;2023-05-29T12:25:29;5.45;;;3.72;;
31112;SDS011;17763;48.730;9.136;2023-05-29T12:27:56;4.53;;;3.53;;
31112;SDS011;17763;48.730;9.136;2023-05-29T12:30:23;3.88;;;3.50;;
31112;SDS011;17763;48.730;9.136;2023-05-29T12:32:49;12.57;;;3.60;;
31112;SDS011;17763;48.730;9.136;2023-05-29T12:37:49;4.47;;;3.70;;
31112;SDS011;17763;48.730;9.136;2023-05-29T12:40:26;5.15;;;3.63;;
31112;SDS011;17763;48.730;9.136;2023-05-29T12:42:54;7.47;;;3.50;;
31112;SDS011;17763;48.730;9.136;2023-05-29T12:45:28;6.72;;;3.85;;
31112;SDS011;17763;48.730;9.136;2023-05-29T12:47:59;5.72;;;3.60;;
31112;SDS011;17763;48.730;9.136;2023-05-29T12:55:33;6.60;;;4.05;;
31112;SDS011;17763;48.730;9.136;2023-05-29T12:58:09;3.97;;;3.50;;
31112;SDS011;17763;48.730;9.136;2023-05-29T13:00:38;9.60;;;3.63;;
31112;SDS011;17763;48.730;9.136;2023-05-29T13:03:06;4.97;;;3.33;;
31112;SDS011;17763;48.730;9.136;2023-05-29T13:05:32;6.07;;;3.75;;
31112;SDS011;17763;48.730;9.136;2023-05-29T13:08:01;4.18;;;3.30;;
31112;SDS011;17763;48.730;9.136;2023-05-29T13:10:32;3.78;;;3.40;;
31112;SDS011;17763;48.730;9.136;2023-05-29T13:13:02;5.10;;;3.33;;
31112;SDS011;17763;48.730;9.136;2023-05-29T13:15:28;4.90;;;3.10;;
31112;SDS011;17763;48.730;9.136;2023-05-29T13:17:54;5.80;;;3.78;;
31112;SDS011;17763;48.730;9.136;2023-05-29T13:20:21;5.93;;;3.47;;
31112;SDS011;17763;48.730;9.136;2023-05-29T13:22:47;8.93;;;3.55;;
31112;SDS011;17763;48.730;9.136;2023-05-29T13:25:18;3.45;;;3.15;;
31112;SDS011;17763;48.730;9.136;2023-05-29T13:27:48;5.20;;;3.63;;
31112;SDS011;17763;48.730;9.136;2023-05-29T13:30:15;3.85;;;3.47;;
31112;SDS011;17763;48.730;9.136;2023-05-29T13:32:41;4.30;;;3.25;;
31112;SDS011;17763;48.730;9.136;2023-05-29T13:35:07;4.95;;;3.60;;
31112;SDS011;17763;48.730;9.136;2023-05-29T13:37:34;5.75;;;3.42;;
31112;SDS011;17763;48.730;9.136;2023-05-29T13:40:03;4.15;;;3.75;;
31112;SDS011;17763;48.730;9.136;2023-05-29T13:42:30;4.95;;;3.72;;
31112;SDS011;17763;48.730;9.136;2023-05-29T13:44:56;4.75;;;3.60;;
31112;SDS011;17763;48.730;9.136;2023-05-29T13:47:27;8.27;;;3.42;;
31112;SDS011;17763;48.730;9.136;2023-05-29T13:49:58;5.82;;;3.58;;
31112;SDS011;17763;48.730;9.136;2023-05-29T13:52:25;5.47;;;3.33;;
31112;SDS011;17763;48.730;9.136;2023-05-29T13:54:55;5.32;;;3.70;;
31112;SDS011;17763;48.730;9.136;2023-05-29T13:57:26;4.57;;;3.92;;
31112;SDS011;17763;48.730;9.136;2023-05-29T13:59:57;6.00;;;3.42;;
31112;SDS011;17763;48.730;9.136;2023-05-29T14:02:23;5.63;;;3.60;;
31112;SDS011;17763;48.730;9.136;2023-05-29T14:04:50;6.30;;;3.95;;
31112;SDS011;17763;48.730;9.136;2023-05-29T14:07:15;5.63;;;3.83;;
31112;SDS011;17763;48.730;9.136;2023-05-29T14:09:43;3.67;;;3.33;;
31112;SDS011;17763;48.730;9.136;2023-05-29T14:12:09;4.53;;;3.53;;
31112;SDS011;17763;48.730;9.136;2023-05-29T14:14:39;8.23;;;4.27;;
31112;SDS011;17763;48.730;9.136;2023-05-29T14:17:05;7.18;;;3.90;;
31112;SDS011;17763;48.730;9.136;2023-05-29T14:19:31;3.83;;;3.42;;
31112;SDS011;17763;48.730;9.136;2023-05-29T14:22:02;5.38;;;3.72;;
31112;SDS011;17763;48.730;9.136;2023-05-29T14:24:28;5.88;;;4.25;;
31112;SDS011;17763;48.730;9.136;2023-05-29T14:26:54;7.05;;;4.03;;
31112;SDS011;17763;48.730;9.136;2023-05-29T14:29:20;7.75;;;3.92;;
31112;SDS011;17763;48.730;9.136;2023-05-29T14:31:45;5.78;;;3.83;;
31112;SDS011;17763;48.730;9.136;2023-05-29T14:34:11;5.47;;;4.05;;
31112;SDS011;17763;48.730;9.136;2023-05-29T14:36:37;4.35;;;3.53;;
31112;SDS011;17763;48.730;9.136;2023-05-29T14:39:08;11.35;;;4.75;;
31112;SDS011;17763;48.730;9.136;2023-05-29T14:41:37;7.20;;;3.83;;
31112;SDS011;17763;48.730;9.136;2023-05-29T14:44:04;3.90;;;3.50;;
31112;SDS011;17763;48.730;9.136;2023-05-29T14:46:30;4.82;;;3.85;;
31112;SDS011;17763;48.730;9.136;2023-05-29T14:48:58;4.63;;;4.18;;
31112;SDS011;17763;48.730;9.136;2023-05-29T14:51:25;5.05;;;4.15;;
31112;SDS011;17763;48.730;9.136;2023-05-29T14:53:51;3.75;;;3.38;;
31112;SDS011;17763;48.730;9.136;2023-05-29T14:56:22;6.32;;;3.78;;
31112;SDS011;17763;48.730;9.136;2023-05-29T14:58:50;4.38;;;3.75;;
31112;SDS011;17763;48.730;9.136;2023-05-29T15:01:17;5.13;;;4.10;;
31112;SDS011;17763;48.730;9.136;2023-05-29T15:03:43;3.90;;;3.60;;
31112;SDS011;17763;48.730;9.136;2023-05-29T15:06:09;6.60;;;4.20;;
31112;SDS011;17763;48.730;9.136;2023-05-29T15:08:37;4.60;;;3.42;;
31112;SDS011;17763;48.730;9.136;2023-05-29T15:11:07;3.70;;;3.40;;
31112;SDS011;17763;48.730;9.136;2023-05-29T15:13:34;8.20;;;3.80;;
31112;SDS011;17763;48.730;9.136;2023-05-29T15:16:00;4.90;;;3.60;;
31112;SDS011;17763;48.730;9.136;2023-05-29T15:18:28;7.03;;;3.60;;
31112;SDS011;17763;48.730;9.136;2023-05-29T15:20:54;4.47;;;3.72;;
31112;SDS011;17763;48.730;9.136;2023-05-29T15:23:19;3.95;;;3.53;;
31112;SDS011;17763;48.730;9.136;2023-05-29T15:25:49;4.35;;;3.20;;
31112;SDS011;17763;48.730;9.136;2023-05-29T15:28:15;5.38;;;3.65;;
31112;SDS011;17763;48.730;9.136;2023-05-29T15:30:41;5.70;;;3.17;;
31112;SDS011;17763;48.730;9.136;2023-05-29T15:33:09;3.58;;;3.20;;